createdAt,value
2023-03-29T00:00:08.133Z,96716.03
2023-03-29T00:02:35.808Z,96716.66
2023-03-29T00:05:05.239Z,96713.34
2023-03-29T00:07:33.891Z,96710.94
2023-03-29T00:10:01.970Z,96715.13
2023-03-29T00:12:29.852Z,96701.31
2023-03-29T00:14:57.767Z,96704.69
2023-03-29T00:17:25.380Z,96704.63
2023-03-29T00:19:53.082Z,96707.59
2023-03-29T00:22:22.290Z,96699.41
2023-03-29T00:24:54.282Z,96701.28
2023-03-29T00:27:22.164Z,96701.06
2023-03-29T00:29:49.643Z,96707.91
2023-03-29T00:32:17.222Z,96692.84
2023-03-29T00:34:46.062Z,96698.34
2023-03-29T00:37:14.742Z,96706.31
2023-03-29T00:39:44.582Z,96700.16
2023-03-29T00:42:13.733Z,96695.81
2023-03-29T00:45:04.040Z,96695.34
2023-03-29T00:47:37.489Z,96696.28
2023-03-29T00:50:12.336Z,96694.38
2023-03-29T00:52:42.268Z,96690.31
2023-03-29T00:55:15.719Z,96685.19
2023-03-29T00:57:46.403Z,96688.41
2023-03-29T01:00:20.866Z,96696.53
2023-03-29T01:02:54.104Z,96698.69
2023-03-29T01:05:27.125Z,96701.44
2023-03-29T01:07:59.705Z,96682.88
2023-03-29T01:10:33.963Z,96677.41
2023-03-29T01:13:09.405Z,96673.66
2023-03-29T01:15:39.571Z,96671.66
2023-03-29T01:18:07.373Z,96671.31
2023-03-29T01:20:49.015Z,96658.78
2023-03-29T01:23:46.921Z,96658.59
2023-03-29T01:26:24.901Z,96657.31
2023-03-29T01:28:59.472Z,96644.75
2023-03-29T01:31:30.993Z,96645.31
2023-03-29T01:34:04.305Z,96638.50
2023-03-29T01:36:37.928Z,96631.00
2023-03-29T01:39:07.419Z,96616.19
2023-03-29T01:41:42.498Z,96611.63
2023-03-29T01:44:16.475Z,96615.22
2023-03-29T01:46:47.868Z,96619.03
2023-03-29T01:49:22.813Z,96605.88
2023-03-29T01:51:54.863Z,96600.78
2023-03-29T01:54:28.056Z,96613.56
2023-03-29T01:56:57.438Z,96612.00
2023-03-29T01:59:29.352Z,96608.97
2023-03-29T02:02:00.486Z,96607.84
2023-03-29T02:04:31.619Z,96609.88
2023-03-29T02:07:00.806Z,96593.94
2023-03-29T02:09:30.187Z,96590.81
2023-03-29T02:12:00.340Z,96595.34
2023-03-29T02:14:30.372Z,96589.72
2023-03-29T02:16:57.910Z,96581.56
2023-03-29T02:19:27.907Z,96585.16
2023-03-29T02:22:01.862Z,96578.69
2023-03-29T02:24:32.853Z,96572.88
2023-03-29T02:27:01.411Z,96571.78
2023-03-29T02:29:30.586Z,96567.97
2023-03-29T02:32:05.009Z,96581.25
2023-03-29T02:34:37.511Z,96582.66
2023-03-29T02:37:10.256Z,96572.53
2023-03-29T02:39:39.484Z,96569.19
2023-03-29T02:42:07.649Z,96572.53
2023-03-29T02:44:42.534Z,96567.66
2023-03-29T02:47:17.046Z,96574.00
2023-03-29T02:49:45.008Z,96568.81
2023-03-29T02:52:16.904Z,96575.09
2023-03-29T02:54:46.553Z,96572.88
2023-03-29T02:57:14.060Z,96568.03
2023-03-29T02:59:44.079Z,96563.53
2023-03-29T03:02:13.540Z,96556.34
2023-03-29T03:04:41.370Z,96555.41
2023-03-29T03:07:09.306Z,96560.66
2023-03-29T03:09:36.907Z,96541.22
2023-03-29T03:12:04.531Z,96548.06
2023-03-29T03:14:32.000Z,96559.28
2023-03-29T03:17:03.086Z,96551.88
2023-03-29T03:19:32.260Z,96545.66
2023-03-29T03:21:59.764Z,96551.13
2023-03-29T03:24:27.978Z,96560.44
2023-03-29T03:26:55.470Z,96554.03
2023-03-29T03:29:23.220Z,96550.78
2023-03-29T03:31:53.833Z,96546.44
2023-03-29T03:34:23.808Z,96548.06
2023-03-29T03:36:51.340Z,96534.53
2023-03-29T03:39:18.862Z,96526.69
2023-03-29T03:41:47.369Z,96533.31
2023-03-29T03:44:14.862Z,96529.06
2023-03-29T03:46:42.328Z,96529.28
2023-03-29T03:49:09.843Z,96530.91
2023-03-29T03:51:38.684Z,96525.63
2023-03-29T03:54:06.753Z,96518.97
2023-03-29T03:56:34.242Z,96521.47
2023-03-29T03:59:02.063Z,96515.72
2023-03-29T04:01:29.516Z,96508.09
2023-03-29T04:03:57.038Z,96514.00
2023-03-29T04:06:25.357Z,96513.41
2023-03-29T04:08:54.223Z,96519.28
2023-03-29T04:11:21.761Z,96514.41
2023-03-29T04:13:49.767Z,96509.22
2023-03-29T04:16:17.327Z,96512.78
2023-03-29T04:18:44.922Z,96510.50
2023-03-29T04:21:12.595Z,96506.66
2023-03-29T04:23:40.138Z,96516.13
2023-03-29T04:26:09.031Z,96514.94
2023-03-29T04:28:36.552Z,96501.22
2023-03-29T04:31:04.382Z,96504.38
2023-03-29T04:33:32.234Z,96505.00
2023-03-29T04:36:00.390Z,96506.09
2023-03-29T04:38:27.983Z,96501.78
2023-03-29T04:40:55.852Z,96509.13
2023-03-29T04:43:24.852Z,96501.78
2023-03-29T04:45:52.315Z,96497.84
2023-03-29T04:48:19.897Z,96497.34
2023-03-29T04:50:47.645Z,96502.41
2023-03-29T04:53:15.242Z,96505.81
2023-03-29T04:55:42.729Z,96511.97
2023-03-29T04:58:10.203Z,96501.66
2023-03-29T05:00:39.105Z,96503.59
2023-03-29T05:03:07.431Z,96494.66
2023-03-29T05:05:34.964Z,96506.81
2023-03-29T05:08:03.225Z,96496.22
2023-03-29T05:10:30.885Z,96492.25
2023-03-29T05:12:58.336Z,96494.22
2023-03-29T05:15:26.107Z,96500.56
2023-03-29T05:17:54.924Z,96496.63
2023-03-29T05:20:22.754Z,96493.69
2023-03-29T05:22:50.210Z,96494.16
2023-03-29T05:25:18.715Z,96494.72
2023-03-29T05:27:46.636Z,96499.25
2023-03-29T05:30:15.653Z,96500.84
2023-03-29T05:32:43.269Z,96498.44
2023-03-29T05:35:12.385Z,96490.94
2023-03-29T05:37:39.974Z,96490.69
2023-03-29T05:40:10.295Z,96478.91
2023-03-29T05:42:38.575Z,96477.41
2023-03-29T05:45:07.398Z,96487.16
2023-03-29T05:47:34.868Z,96476.19
2023-03-29T05:50:02.338Z,96480.31
2023-03-29T05:52:31.513Z,96475.19
2023-03-29T05:54:58.977Z,96473.41
2023-03-29T05:57:27.819Z,96473.38
2023-03-29T05:59:56.412Z,96465.88
2023-03-29T06:02:25.583Z,96468.53
2023-03-29T06:04:53.894Z,96463.72
2023-03-29T06:07:23.318Z,96458.31
2023-03-29T06:09:52.161Z,96462.00
2023-03-29T06:12:21.782Z,96465.38
2023-03-29T06:14:49.276Z,96471.84
2023-03-29T06:17:17.417Z,96454.75
2023-03-29T06:19:45.243Z,96449.97
2023-03-29T06:22:14.827Z,96451.66
2023-03-29T06:24:42.449Z,96456.31
2023-03-29T06:27:11.259Z,96456.13
2023-03-29T06:29:38.753Z,96467.88
2023-03-29T06:32:06.637Z,96463.81
2023-03-29T06:34:36.061Z,96464.00
2023-03-29T06:37:05.820Z,96467.44
2023-03-29T06:39:33.577Z,96465.19
2023-03-29T06:42:07.347Z,96461.34
2023-03-29T06:44:42.093Z,96467.50
2023-03-29T06:47:09.574Z,96471.72
2023-03-29T06:49:37.095Z,96477.81
2023-03-29T06:52:04.892Z,96471.03
2023-03-29T06:54:33.477Z,96474.28
2023-03-29T06:57:01.340Z,96476.56
2023-03-29T06:59:28.868Z,96480.25
2023-03-29T07:01:58.430Z,96475.47
2023-03-29T07:04:26.083Z,96469.84
2023-03-29T07:07:01.410Z,96472.97
2023-03-29T07:09:30.762Z,96479.66
2023-03-29T07:11:58.747Z,96470.94
2023-03-29T07:14:28.807Z,96480.25
2023-03-29T07:16:59.292Z,96481.69
2023-03-29T07:19:28.664Z,96485.25
2023-03-29T07:21:57.016Z,96481.69
2023-03-29T07:24:24.476Z,96478.81
2023-03-29T07:27:03.321Z,96482.63
2023-03-29T07:29:32.078Z,96484.41
2023-03-29T07:32:00.870Z,96487.41
2023-03-29T07:34:30.012Z,96490.16
2023-03-29T07:36:57.692Z,96485.22
2023-03-29T07:39:26.109Z,96489.78
2023-03-29T07:41:53.587Z,96489.00
2023-03-29T07:44:21.543Z,96484.34
2023-03-29T07:46:49.473Z,96486.91
2023-03-29T07:49:19.809Z,96489.66
2023-03-29T07:51:49.206Z,96490.94
2023-03-29T07:54:16.848Z,96494.00
2023-03-29T07:56:44.463Z,96487.34
2023-03-29T07:59:11.958Z,96485.22
2023-03-29T08:01:40.823Z,96482.19
2023-03-29T08:04:09.585Z,96483.25
2023-03-29T08:06:38.586Z,96475.28
2023-03-29T08:09:06.197Z,96482.72
2023-03-29T08:11:33.686Z,96478.41
2023-03-29T08:14:01.152Z,96490.13
2023-03-29T08:16:28.682Z,96479.59
2023-03-29T08:18:56.196Z,96473.84
2023-03-29T08:21:23.691Z,96473.06
2023-03-29T08:23:52.545Z,96473.94
2023-03-29T08:26:20.156Z,96468.09
2023-03-29T08:28:47.656Z,96473.34
2023-03-29T08:31:16.581Z,96467.34
2023-03-29T08:33:44.392Z,96466.56
2023-03-29T08:36:12.382Z,96476.63
2023-03-29T08:38:39.886Z,96466.81
2023-03-29T08:41:27.152Z,96474.34
2023-03-29T08:44:07.910Z,96470.31
2023-03-29T08:46:45.087Z,96472.94
2023-03-29T08:49:13.320Z,96466.69
2023-03-29T08:51:45.316Z,96463.13
2023-03-29T08:54:18.097Z,96459.31
2023-03-29T08:56:47.841Z,96463.03
2023-03-29T08:59:20.888Z,96458.06
2023-03-29T09:01:51.027Z,96455.97
2023-03-29T09:04:22.754Z,96444.50
2023-03-29T09:06:50.678Z,96447.03
2023-03-29T09:09:20.710Z,96452.94
2023-03-29T09:12:02.681Z,96448.03
2023-03-29T09:14:41.875Z,96453.75
2023-03-29T09:17:21.449Z,96456.88
2023-03-29T09:19:55.963Z,96458.53
2023-03-29T09:22:30.322Z,96454.38
2023-03-29T09:25:10.014Z,96461.03
2023-03-29T09:27:48.920Z,96454.19
2023-03-29T09:30:25.859Z,96457.94
2023-03-29T09:32:54.805Z,96443.31
2023-03-29T09:35:26.096Z,96444.16
2023-03-29T09:37:55.189Z,96452.91
2023-03-29T09:40:27.648Z,96431.66
2023-03-29T09:42:57.973Z,96440.88
2023-03-29T09:45:25.795Z,96433.19
2023-03-29T09:47:57.674Z,96424.56
2023-03-29T09:50:31.962Z,96428.72
2023-03-29T09:52:59.806Z,96424.34
2023-03-29T09:55:30.211Z,96422.34
2023-03-29T09:58:02.627Z,96427.34
2023-03-29T10:00:30.171Z,96424.00
2023-03-29T10:03:00.024Z,96424.03
2023-03-29T10:05:37.692Z,96421.84
2023-03-29T10:08:19.820Z,96420.69
2023-03-29T10:10:48.392Z,96417.06
2023-03-29T10:13:23.066Z,96419.69
2023-03-29T10:16:09.876Z,96410.38
2023-03-29T10:18:42.556Z,96415.38
2023-03-29T10:21:14.388Z,96414.34
2023-03-29T10:23:42.581Z,96409.25
2023-03-29T10:26:15.662Z,96410.06
2023-03-29T10:28:44.705Z,96413.88
2023-03-29T10:31:19.134Z,96408.31
2023-03-29T10:33:53.148Z,96414.56
2023-03-29T10:36:20.954Z,96407.47
2023-03-29T10:38:49.046Z,96407.09
2023-03-29T10:41:18.468Z,96398.53
2023-03-29T10:43:50.812Z,96401.72
2023-03-29T10:46:23.453Z,96398.41
2023-03-29T10:48:52.836Z,96401.97
2023-03-29T10:51:20.581Z,96401.88
2023-03-29T10:53:48.204Z,96397.16
2023-03-29T10:56:34.983Z,96404.75
2023-03-29T10:59:17.838Z,96409.59
2023-03-29T11:01:58.807Z,96396.13
2023-03-29T11:04:37.259Z,96392.28
2023-03-29T11:07:27.140Z,96384.44
2023-03-29T11:10:11.714Z,96386.44
2023-03-29T11:12:45.258Z,96389.16
2023-03-29T11:15:30.118Z,96389.19
2023-03-29T11:18:18.667Z,96382.25
2023-03-29T11:20:55.178Z,96381.28
2023-03-29T11:23:37.490Z,96382.19
2023-03-29T11:26:13.938Z,96381.72
2023-03-29T11:28:49.709Z,96379.19
2023-03-29T11:31:39.090Z,96380.66
2023-03-29T11:34:27.462Z,96390.72
2023-03-29T11:37:02.553Z,96387.22
2023-03-29T11:39:41.619Z,96378.91
2023-03-29T11:42:16.574Z,96386.41
2023-03-29T11:44:47.168Z,96385.28
2023-03-29T11:47:19.612Z,96385.53
2023-03-29T11:49:51.750Z,96377.06
2023-03-29T11:52:24.483Z,96381.69
2023-03-29T11:54:58.322Z,96382.38
2023-03-29T11:57:29.943Z,96381.00
2023-03-29T12:00:05.129Z,96374.47
2023-03-29T12:02:39.366Z,96381.66
2023-03-29T12:05:14.409Z,96389.91
2023-03-29T12:07:46.743Z,96368.78
2023-03-29T12:10:20.350Z,96372.03
2023-03-29T12:12:53.857Z,96373.84
2023-03-29T12:15:24.850Z,96368.19
2023-03-29T12:18:03.532Z,96365.13
2023-03-29T12:20:34.601Z,96352.41
2023-03-29T12:23:02.676Z,96356.16
2023-03-29T12:25:35.509Z,96367.09
2023-03-29T12:28:17.169Z,96356.16
2023-03-29T12:30:55.333Z,96354.41
2023-03-29T12:33:41.789Z,96357.53
2023-03-29T12:36:20.328Z,96366.84
2023-03-29T12:38:52.338Z,96366.63
2023-03-29T12:41:21.893Z,96358.09
2023-03-29T12:43:50.374Z,96358.22
2023-03-29T12:46:20.209Z,96362.16
2023-03-29T12:48:52.067Z,96369.75
2023-03-29T12:51:22.787Z,96357.88
2023-03-29T12:53:53.293Z,96360.19
2023-03-29T12:56:23.674Z,96344.88
2023-03-29T12:58:56.365Z,96363.56
2023-03-29T13:01:28.264Z,96347.91
2023-03-29T13:04:16.808Z,96349.91
2023-03-29T13:07:05.968Z,96343.72
2023-03-29T13:09:36.707Z,96342.72
2023-03-29T13:12:14.449Z,96329.44
2023-03-29T13:14:44.982Z,96337.34
2023-03-29T13:17:25.520Z,96336.06
2023-03-29T13:20:09.233Z,96342.97
2023-03-29T13:22:48.266Z,96333.34
2023-03-29T13:25:29.742Z,96334.28
2023-03-29T13:28:04.422Z,96335.47
2023-03-29T13:30:45.392Z,96332.50
2023-03-29T13:33:31.451Z,96337.38
2023-03-29T13:36:07.475Z,96327.81
2023-03-29T13:38:46.413Z,96318.78
2023-03-29T13:41:28.674Z,96320.44
2023-03-29T13:43:57.558Z,96323.97
2023-03-29T13:46:36.332Z,96305.16
2023-03-29T13:49:16.293Z,96309.69
2023-03-29T13:52:05.458Z,96309.78
2023-03-29T13:54:37.040Z,96305.47
2023-03-29T13:57:09.802Z,96302.91
2023-03-29T13:59:44.046Z,96297.53
2023-03-29T14:02:20.982Z,96287.75
2023-03-29T14:04:52.081Z,96296.22
2023-03-29T14:07:26.118Z,96293.59
2023-03-29T14:09:56.097Z,96291.56
2023-03-29T14:12:23.679Z,96290.56
2023-03-29T14:15:03.543Z,96286.50
2023-03-29T14:17:31.645Z,96284.13
2023-03-29T14:20:01.480Z,96295.91
2023-03-29T14:22:34.547Z,96302.66
2023-03-29T14:25:06.185Z,96295.53
2023-03-29T14:27:37.038Z,96301.63
2023-03-29T14:30:20.074Z,96292.97
2023-03-29T14:32:49.777Z,96296.78
2023-03-29T14:35:17.498Z,96286.22
2023-03-29T14:37:48.901Z,96295.91
2023-03-29T14:40:19.813Z,96291.41
2023-03-29T14:42:49.021Z,96290.16
2023-03-29T14:45:19.454Z,96295.13
2023-03-29T14:47:47.970Z,96290.94
2023-03-29T14:50:22.358Z,96289.38
2023-03-29T14:52:52.610Z,96291.06
2023-03-29T14:55:23.675Z,96288.69
2023-03-29T14:57:52.683Z,96297.19
2023-03-29T15:00:26.819Z,96277.50
2023-03-29T15:02:57.711Z,96283.06
2023-03-29T15:05:32.909Z,96281.38
2023-03-29T15:08:03.672Z,96272.88
2023-03-29T15:10:34.246Z,96271.97
2023-03-29T15:13:03.455Z,96280.16
2023-03-29T15:15:34.543Z,96278.09
2023-03-29T15:18:03.546Z,96281.25
2023-03-29T15:20:34.728Z,96267.94
2023-03-29T15:23:05.372Z,96259.66
2023-03-29T15:25:37.207Z,96263.28
2023-03-29T15:28:05.321Z,96255.84
2023-03-29T15:30:35.363Z,96252.31
2023-03-29T15:33:16.325Z,96257.75
2023-03-29T15:35:50.413Z,96254.22
2023-03-29T15:38:23.367Z,96246.63
2023-03-29T15:40:55.439Z,96247.28
2023-03-29T15:43:23.552Z,96244.31
2023-03-29T15:45:51.132Z,96250.34
2023-03-29T15:48:21.456Z,96246.31
2023-03-29T15:50:49.027Z,96244.94
2023-03-29T15:53:18.474Z,96247.75
2023-03-29T15:55:50.913Z,96243.69
2023-03-29T15:58:21.370Z,96237.53
2023-03-29T16:00:54.731Z,96235.81
2023-03-29T16:03:24.471Z,96232.75
2023-03-29T16:05:54.121Z,96234.72
2023-03-29T16:08:21.614Z,96232.22
2023-03-29T16:10:50.426Z,96235.34
2023-03-29T16:13:17.886Z,96225.75
2023-03-29T16:15:45.539Z,96229.94
2023-03-29T16:18:13.301Z,96234.47
2023-03-29T16:20:41.500Z,96231.78
2023-03-29T16:23:09.706Z,96235.34
2023-03-29T16:25:39.834Z,96233.41
2023-03-29T16:28:09.998Z,96219.66
2023-03-29T16:30:38.469Z,96225.16
2023-03-29T16:33:08.465Z,96222.59
2023-03-29T16:35:38.469Z,96235.69
2023-03-29T16:38:06.351Z,96241.47
2023-03-29T16:40:34.276Z,96231.94
2023-03-29T16:43:02.657Z,96230.78
2023-03-29T16:45:31.741Z,96231.91
2023-03-29T16:47:59.357Z,96227.69
2023-03-29T16:50:27.029Z,96223.63
2023-03-29T16:52:54.563Z,96218.63
2023-03-29T16:55:22.046Z,96213.84
2023-03-29T16:57:50.869Z,96220.53
2023-03-29T17:00:20.190Z,96229.81
2023-03-29T17:02:50.498Z,96220.72
2023-03-29T17:05:18.877Z,96212.09
2023-03-29T17:07:46.840Z,96213.13
2023-03-29T17:10:15.440Z,96218.25
2023-03-29T17:12:42.928Z,96221.06
2023-03-29T17:15:11.281Z,96217.38
2023-03-29T17:17:38.894Z,96214.38
2023-03-29T17:20:11.888Z,96223.28
2023-03-29T17:22:39.520Z,96214.66
2023-03-29T17:25:08.492Z,96224.34
2023-03-29T17:27:37.297Z,96221.34
2023-03-29T17:30:05.550Z,96223.88
2023-03-29T17:32:33.325Z,96222.03
2023-03-29T17:35:00.862Z,96219.91
2023-03-29T17:37:30.129Z,96221.06
2023-03-29T17:39:57.606Z,96215.53
2023-03-29T17:42:25.261Z,96218.25
2023-03-29T17:44:52.743Z,96224.22
2023-03-29T17:47:20.592Z,96221.53
2023-03-29T17:49:48.078Z,96230.63
2023-03-29T17:52:15.550Z,96224.41
2023-03-29T17:54:44.422Z,96224.94
2023-03-29T17:57:12.059Z,96219.84
2023-03-29T17:59:39.682Z,96231.84
2023-03-29T18:02:07.700Z,96230.25
2023-03-29T18:04:35.555Z,96237.66
2023-03-29T18:07:03.028Z,96232.44
2023-03-29T18:09:31.136Z,96242.69
2023-03-29T18:12:00.031Z,96244.63
2023-03-29T18:14:27.512Z,96240.81
2023-03-29T18:16:55.743Z,96242.06
2023-03-29T18:19:23.455Z,96245.72
2023-03-29T18:21:51.025Z,96247.22
2023-03-29T18:24:18.553Z,96245.53
2023-03-29T18:26:46.043Z,96238.63
2023-03-29T18:29:15.434Z,96242.06
2023-03-29T18:31:43.519Z,96243.78
2023-03-29T18:34:11.112Z,96252.59
2023-03-29T18:36:38.708Z,96249.06
2023-03-29T18:39:06.315Z,96247.25
2023-03-29T18:41:35.536Z,96249.41
2023-03-29T18:44:03.024Z,96259.47
2023-03-29T18:46:33.110Z,96242.53
2023-03-29T18:49:02.041Z,96260.81
2023-03-29T18:51:29.642Z,96258.31
2023-03-29T18:53:57.345Z,96258.31
2023-03-29T18:56:24.822Z,96255.38
2023-03-29T18:58:52.374Z,96260.59
2023-03-29T19:01:19.906Z,96253.47
2023-03-29T19:03:49.083Z,96261.19
2023-03-29T19:06:16.810Z,96257.19
2023-03-29T19:08:44.329Z,96253.94
2023-03-29T19:11:14.178Z,96248.59
2023-03-29T19:13:42.238Z,96240.25
2023-03-29T19:16:10.266Z,96250.94
2023-03-29T19:18:37.796Z,96256.91
2023-03-29T19:21:06.903Z,96260.44
2023-03-29T19:23:34.453Z,96258.16
2023-03-29T19:26:03.689Z,96255.91
2023-03-29T19:28:32.087Z,96250.31
2023-03-29T19:31:01.515Z,96251.50
2023-03-29T19:33:29.317Z,96259.53
2023-03-29T19:35:57.173Z,96247.44
2023-03-29T19:38:26.264Z,96243.84
2023-03-29T19:40:53.775Z,96240.50
2023-03-29T19:43:21.433Z,96230.34
2023-03-29T19:45:50.727Z,96215.19
2023-03-29T19:48:23.420Z,96227.31
2023-03-29T19:50:51.396Z,96215.88
2023-03-29T19:53:19.008Z,96204.91
2023-03-29T19:55:48.646Z,96214.72
2023-03-29T19:58:16.128Z,96199.88
2023-03-29T20:00:43.603Z,96204.91
2023-03-29T20:03:11.244Z,96208.75
2023-03-29T20:05:39.708Z,96199.59
2023-03-29T20:08:07.485Z,96210.53
2023-03-29T20:10:36.796Z,96206.78
2023-03-29T20:13:06.483Z,96208.25
2023-03-29T20:15:36.011Z,96195.56
2023-03-29T20:18:03.573Z,96200.84
2023-03-29T20:20:31.674Z,96196.53
2023-03-29T20:23:04.516Z,96189.41
2023-03-29T20:25:33.040Z,96198.91
2023-03-29T20:28:00.598Z,96208.13
2023-03-29T20:30:29.675Z,96201.34
2023-03-29T20:32:57.453Z,96208.28
2023-03-29T20:35:25.545Z,96201.63
2023-03-29T20:37:53.018Z,96205.38
2023-03-29T20:40:20.751Z,96201.50
2023-03-29T20:42:48.865Z,96194.03
2023-03-29T20:45:19.259Z,96196.94
2023-03-29T20:47:55.873Z,96199.72
2023-03-29T20:50:30.074Z,96201.97
2023-03-29T20:53:02.043Z,96199.44
2023-03-29T20:55:30.358Z,96193.34
2023-03-29T20:58:00.662Z,96191.69
2023-03-29T21:00:31.444Z,96200.38
2023-03-29T21:03:00.526Z,96192.91
2023-03-29T21:05:29.589Z,96200.06
2023-03-29T21:07:57.330Z,96195.50
2023-03-29T21:10:26.318Z,96197.16
2023-03-29T21:12:55.066Z,96184.34
2023-03-29T21:15:22.584Z,96185.53
2023-03-29T21:17:50.129Z,96188.94
2023-03-29T21:20:19.816Z,96201.13
2023-03-29T21:22:47.323Z,96197.72
2023-03-29T21:25:15.787Z,96195.38
2023-03-29T21:27:43.728Z,96188.91
2023-03-29T21:30:11.852Z,96180.81
2023-03-29T21:32:39.420Z,96181.41
2023-03-29T21:35:07.970Z,96154.31
2023-03-29T21:37:36.805Z,96154.88
2023-03-29T21:40:06.440Z,96158.28
2023-03-29T21:42:34.900Z,96161.81
2023-03-29T21:45:02.615Z,96160.63
2023-03-29T21:47:30.912Z,96163.03
2023-03-29T21:49:58.431Z,96162.84
2023-03-29T21:52:26.046Z,96151.44
2023-03-29T21:54:54.890Z,96142.34
2023-03-29T21:57:22.400Z,96148.44
2023-03-29T21:59:49.994Z,96144.03
2023-03-29T22:02:17.490Z,96146.16
2023-03-29T22:04:45.163Z,96135.56
2023-03-29T22:07:12.636Z,96142.47
2023-03-29T22:09:42.204Z,96133.47
2023-03-29T22:12:11.988Z,96141.91
2023-03-29T22:14:39.508Z,96138.34
2023-03-29T22:17:07.063Z,96137.25
2023-03-29T22:19:38.755Z,96137.00
2023-03-29T22:22:07.238Z,96124.63
2023-03-29T22:24:34.752Z,96120.91
2023-03-29T22:27:02.548Z,96111.41
2023-03-29T22:29:31.402Z,96112.25
2023-03-29T22:31:58.913Z,96104.81
2023-03-29T22:34:26.483Z,96116.69
2023-03-29T22:36:54.002Z,96119.16
2023-03-29T22:39:21.476Z,96110.34
2023-03-29T22:41:48.939Z,96107.78
2023-03-29T22:44:16.416Z,96106.84
2023-03-29T22:46:45.477Z,96111.22
2023-03-29T22:49:13.160Z,96114.91
2023-03-29T22:51:40.646Z,96106.06
2023-03-29T22:54:08.688Z,96104.50
2023-03-29T22:56:36.244Z,96112.34
2023-03-29T22:59:03.748Z,96118.16
2023-03-29T23:01:31.294Z,96106.84
2023-03-29T23:04:00.227Z,96107.31
2023-03-29T23:06:27.806Z,96095.00
2023-03-29T23:08:55.390Z,96092.47
2023-03-29T23:11:22.948Z,96092.84
2023-03-29T23:13:52.444Z,96084.31
2023-03-29T23:16:20.708Z,96084.84
2023-03-29T23:18:48.433Z,96086.28
2023-03-29T23:21:17.557Z,96084.16
2023-03-29T23:23:45.045Z,96090.13
2023-03-29T23:26:12.605Z,96085.97
2023-03-29T23:28:41.029Z,96079.19
2023-03-29T23:31:10.687Z,96083.38
2023-03-29T23:33:40.330Z,96078.84
2023-03-29T23:36:10.732Z,96075.16
2023-03-29T23:38:40.667Z,96078.72
2023-03-29T23:41:10.799Z,96072.22
2023-03-29T23:43:40.286Z,96063.38
2023-03-29T23:46:09.629Z,96064.53
2023-03-29T23:48:37.949Z,96072.91
2023-03-29T23:51:07.737Z,96072.00
2023-03-29T23:53:35.301Z,96071.22
2023-03-29T23:56:06.146Z,96070.84
2023-03-29T23:58:36.765Z,96073.16
